createdAt,value
2018-10-05T00:00:26.809Z,96167.52
2018-10-05T00:02:55.853Z,96172.59
2018-10-05T00:08:00.580Z,96169.20
2018-10-05T00:10:30.549Z,96171.48
2018-10-05T00:15:35.380Z,96165.11
2018-10-05T00:18:04.423Z,96161.95
2018-10-05T00:20:33.488Z,96161.33
2018-10-05T00:23:02.512Z,96164.94
2018-10-05T00:25:31.558Z,96166.95
2018-10-05T00:28:06.186Z,96168.13
2018-10-05T00:30:35.229Z,96175.75
2018-10-05T00:35:40.993Z,96168.78
2018-10-05T00:38:10.261Z,96160.16
2018-10-05T00:40:39.220Z,96156.02
2018-10-05T00:43:08.261Z,96154.17
2018-10-05T00:48:13.001Z,96153.06
2018-10-05T00:50:42.965Z,96155.17
2018-10-05T00:55:47.755Z,96150.85
2018-10-05T00:58:16.828Z,96151.34
2018-10-05T01:00:45.873Z,96155.47
2018-10-05T01:05:51.585Z,96156.94
2018-10-05T01:10:56.395Z,96146.28
2018-10-05T01:16:01.154Z,96140.37
2018-10-05T01:18:34.702Z,96138.42
2018-10-05T01:21:03.771Z,96135.59
2018-10-05T01:23:33.793Z,96136.33
2018-10-05T01:26:02.855Z,96133.81
2018-10-05T01:28:35.922Z,96131.86
2018-10-05T01:31:05.913Z,96125.55
2018-10-05T01:36:11.685Z,96133.45
2018-10-05T01:41:16.372Z,96129.95
2018-10-05T01:43:45.429Z,96126.70
2018-10-05T01:46:14.488Z,96130.11
2018-10-05T01:48:43.638Z,96125.82
2018-10-05T01:51:13.698Z,96128.00
2018-10-05T01:53:42.765Z,96133.00
2018-10-05T01:56:11.917Z,96137.56
2018-10-05T02:01:16.657Z,96135.08
2018-10-05T02:03:45.704Z,96132.58
2018-10-05T02:08:50.503Z,96130.56
2018-10-05T02:14:08.721Z,96125.81
2018-10-05T02:16:37.777Z,96123.01
2018-10-05T02:19:07.845Z,96117.25
2018-10-05T02:21:36.926Z,96123.60
2018-10-05T02:26:41.745Z,96115.14
2018-10-05T02:29:10.781Z,96113.14
2018-10-05T02:31:39.902Z,96115.00
2018-10-05T02:34:08.924Z,96116.17
2018-10-05T02:36:37.987Z,96115.86
2018-10-05T02:39:09.030Z,96113.58
2018-10-05T02:41:38.124Z,96104.18
2018-10-05T02:44:07.125Z,96099.09
2018-10-05T02:46:38.178Z,96097.33
2018-10-05T02:49:08.187Z,96097.44
2018-10-05T02:51:37.240Z,96092.41
2018-10-05T02:59:17.733Z,96096.00
2018-10-05T03:02:09.265Z,96089.69
2018-10-05T03:04:39.303Z,96091.97
2018-10-05T03:07:08.425Z,96092.55
2018-10-05T03:09:37.535Z,96090.95
2018-10-05T03:12:06.591Z,96087.00
2018-10-05T03:14:35.641Z,96084.23
2018-10-05T03:17:04.693Z,96080.11
2018-10-05T03:19:34.773Z,96077.67
2018-10-05T03:22:03.797Z,96075.63
2018-10-05T03:27:10.540Z,96067.89
2018-10-05T03:29:39.656Z,96064.70
2018-10-05T03:32:08.716Z,96066.28
2018-10-05T03:34:37.757Z,96066.63
2018-10-05T03:37:06.812Z,96063.12
2018-10-05T03:39:35.879Z,96065.20
2018-10-05T03:44:40.625Z,96059.30
2018-10-05T03:47:09.678Z,96056.75
2018-10-05T03:49:38.737Z,96056.06
2018-10-05T03:52:08.682Z,96055.38
2018-10-05T03:54:37.731Z,96054.93
2018-10-05T03:57:06.786Z,96056.91
2018-10-05T04:02:13.576Z,96056.43
2018-10-05T04:04:43.653Z,96062.52
2018-10-05T04:07:12.701Z,96061.85
2018-10-05T04:12:17.493Z,96050.37
2018-10-05T04:17:23.294Z,96047.24
2018-10-05T04:19:52.331Z,96049.39
2018-10-05T04:22:21.442Z,96056.02
2018-10-05T04:24:50.502Z,96052.12
2018-10-05T04:27:19.629Z,96050.03
2018-10-05T04:29:48.669Z,96050.39
2018-10-05T04:32:17.700Z,96043.08
2018-10-05T04:34:46.737Z,96039.14
2018-10-05T04:37:15.792Z,96036.25
2018-10-05T04:39:44.885Z,96039.91
2018-10-05T04:44:50.509Z,96041.66
2018-10-05T04:47:19.620Z,96039.61
2018-10-05T04:49:48.636Z,96040.23
2018-10-05T04:52:17.678Z,96043.22
2018-10-05T04:54:47.690Z,96042.02
2018-10-05T04:57:16.741Z,96041.12
2018-10-05T04:59:45.814Z,96033.94
2018-10-05T05:02:16.856Z,96031.36
2018-10-05T05:04:46.862Z,96032.70
2018-10-05T05:09:51.652Z,96039.87
2018-10-05T05:12:21.620Z,96042.88
2018-10-05T05:14:50.695Z,96036.72
2018-10-05T05:17:19.732Z,96040.08
2018-10-05T05:22:25.026Z,96045.80
2018-10-05T05:24:54.077Z,96045.89
2018-10-05T05:27:23.133Z,96047.61
2018-10-05T05:29:52.198Z,96049.20
2018-10-05T05:32:21.378Z,96050.91
2018-10-05T05:34:50.424Z,96053.73
2018-10-05T05:37:19.487Z,96047.25
2018-10-05T05:42:24.293Z,96044.48
2018-10-05T05:44:54.365Z,96042.84
2018-10-05T05:47:23.415Z,96038.94
2018-10-05T05:52:28.153Z,96046.83
2018-10-05T05:54:57.256Z,96050.68
2018-10-05T05:57:40.367Z,96052.41
2018-10-05T06:00:23.837Z,96052.95
2018-10-05T06:03:05.675Z,96056.66
2018-10-05T06:05:47.291Z,96056.91
2018-10-05T06:10:53.715Z,96056.02
2018-10-05T06:13:22.753Z,96052.88
2018-10-05T06:15:51.906Z,96054.20
2018-10-05T06:18:20.920Z,96050.28
2018-10-05T06:23:26.742Z,96050.98
2018-10-05T06:25:57.732Z,96056.25
2018-10-05T06:28:26.772Z,96058.70
2018-10-05T06:30:55.881Z,96058.27
2018-10-05T06:33:29.533Z,96056.21
2018-10-05T06:35:58.592Z,96062.66
2018-10-05T06:38:27.686Z,96063.34
2018-10-05T06:40:58.673Z,96067.55
2018-10-05T06:43:27.729Z,96071.19
2018-10-05T06:48:32.481Z,96079.65
2018-10-05T06:53:37.473Z,96080.84
2018-10-05T06:56:06.521Z,96091.49
2018-10-05T06:58:35.569Z,96087.53
2018-10-05T07:01:04.672Z,96080.38
2018-10-05T07:03:34.688Z,96081.95
2018-10-05T07:06:04.737Z,96080.57
2018-10-05T07:08:36.009Z,96074.84
2018-10-05T07:16:16.494Z,96069.13
2018-10-05T07:18:46.431Z,96071.61
2018-10-05T07:23:56.709Z,96072.73
2018-10-05T07:26:26.689Z,96079.05
2018-10-05T07:28:55.977Z,96079.53
2018-10-05T07:34:01.147Z,96083.61
2018-10-05T07:36:31.097Z,96085.46
2018-10-05T07:39:04.044Z,96086.31
2018-10-05T07:41:33.087Z,96081.36
2018-10-05T07:44:02.140Z,96082.13
2018-10-05T07:46:31.474Z,96079.57
2018-10-05T07:49:00.513Z,96078.70
2018-10-05T07:51:29.695Z,96078.03
2018-10-05T07:53:58.900Z,96087.12
2018-10-05T07:56:27.952Z,96092.68
2018-10-05T07:58:57.970Z,96095.41
2018-10-05T08:01:27.025Z,96091.70
2018-10-05T08:03:56.107Z,96094.56
2018-10-05T08:09:00.902Z,96093.28
2018-10-05T08:11:29.943Z,96089.06
2018-10-05T08:13:59.026Z,96092.83
2018-10-05T08:16:28.122Z,96088.86
2018-10-05T08:18:57.201Z,96085.52
2018-10-05T08:21:26.261Z,96081.81
2018-10-05T08:23:55.286Z,96079.57
2018-10-05T08:26:24.451Z,96072.83
2018-10-05T08:28:53.466Z,96074.92
2018-10-05T08:31:26.013Z,96074.05
2018-10-05T08:33:56.072Z,96070.49
2018-10-05T08:36:25.097Z,96064.64
2018-10-05T08:38:54.161Z,96065.00
2018-10-05T08:41:23.206Z,96066.95
2018-10-05T08:43:52.256Z,96064.58
2018-10-05T08:49:02.032Z,96052.77
2018-10-05T08:54:07.906Z,96040.52
2018-10-05T08:56:39.972Z,96039.20
2018-10-05T08:59:10.034Z,96037.90
2018-10-05T09:01:41.094Z,96034.98
2018-10-05T09:04:11.101Z,96035.09
2018-10-05T09:06:40.186Z,96026.41
2018-10-05T09:09:09.230Z,96027.48
2018-10-05T09:14:14.109Z,96012.03
2018-10-05T09:16:43.164Z,96006.38
2018-10-05T09:19:13.173Z,95996.64
2018-10-05T09:21:45.249Z,95997.24
2018-10-05T09:24:14.369Z,95991.64
2018-10-05T09:29:20.141Z,95985.34
2018-10-05T09:31:51.143Z,95977.22
2018-10-05T09:34:20.189Z,95971.86
2018-10-05T09:36:49.255Z,95970.78
2018-10-05T09:39:18.314Z,95959.77
2018-10-05T09:41:47.463Z,95955.33
2018-10-05T09:44:16.508Z,95954.28
2018-10-05T09:46:45.564Z,95948.98
2018-10-05T09:49:14.709Z,95942.20
2018-10-05T09:51:45.728Z,95942.82
2018-10-05T09:54:18.398Z,95938.16
2018-10-05T09:56:47.452Z,95938.67
2018-10-05T10:01:52.370Z,95929.45
2018-10-05T10:04:21.418Z,95935.06
2018-10-05T10:09:22.909Z,95924.94
2018-10-05T10:11:52.002Z,95923.72
2018-10-05T10:14:21.051Z,95917.75
2018-10-05T10:16:51.047Z,95922.55
2018-10-05T10:19:20.122Z,95911.70
2018-10-05T10:21:49.212Z,95906.81
2018-10-05T10:24:19.337Z,95903.26
2018-10-05T10:26:48.404Z,95907.21
2018-10-05T10:29:18.615Z,95908.83
2018-10-05T10:31:47.571Z,95895.22
2018-10-05T10:34:17.591Z,95896.90
2018-10-05T10:36:46.700Z,95894.61
2018-10-05T10:39:15.683Z,95891.73
2018-10-05T10:41:45.697Z,95897.33
2018-10-05T10:44:14.793Z,95895.31
2018-10-05T10:46:43.854Z,95887.09
2018-10-05T10:49:12.912Z,95889.54
2018-10-05T10:51:42.909Z,95892.74
2018-10-05T10:54:13.046Z,95886.38
2018-10-05T10:56:42.014Z,95891.47
2018-10-05T10:59:11.072Z,95887.80
2018-10-05T11:01:41.062Z,95880.69
2018-10-05T11:04:10.237Z,95877.76
2018-10-05T11:06:39.253Z,95875.79
2018-10-05T11:09:08.306Z,95865.76
2018-10-05T11:11:41.647Z,95862.63
2018-10-05T11:14:12.705Z,95859.12
2018-10-05T11:16:41.765Z,95854.50
2018-10-05T11:19:10.826Z,95844.83
2018-10-05T11:21:41.925Z,95838.19
2018-10-05T11:24:12.981Z,95830.61
2018-10-05T11:26:43.057Z,95830.13
2018-10-05T11:29:12.101Z,95836.52
2018-10-05T11:31:41.162Z,95827.83
2018-10-05T11:34:10.208Z,95819.78
2018-10-05T11:36:39.260Z,95818.75
2018-10-05T11:39:08.318Z,95810.80
2018-10-05T11:41:37.437Z,95807.08
2018-10-05T11:44:06.493Z,95797.27
2018-10-05T11:46:35.542Z,95796.66
2018-10-05T11:49:04.605Z,95793.52
2018-10-05T11:51:33.658Z,95791.22
2018-10-05T11:54:02.730Z,95789.27
2018-10-05T11:56:43.239Z,95776.55
2018-10-05T11:59:12.298Z,95771.62
2018-10-05T12:01:42.269Z,95768.90
2018-10-05T12:04:11.313Z,95763.03
2018-10-05T12:06:40.368Z,95758.42
2018-10-05T12:09:10.393Z,95754.33
2018-10-05T12:11:39.533Z,95749.06
2018-10-05T12:14:08.597Z,95745.45
2018-10-05T12:16:37.649Z,95747.50
2018-10-05T12:19:06.734Z,95743.95
2018-10-05T12:21:35.786Z,95737.38
2018-10-05T12:24:08.428Z,95748.37
2018-10-05T12:29:15.364Z,95744.58
2018-10-05T12:31:45.428Z,95740.47
2018-10-05T12:34:14.568Z,95737.05
2018-10-05T12:36:44.621Z,95733.08
2018-10-05T12:39:15.667Z,95743.89
2018-10-05T12:41:44.725Z,95737.11
2018-10-05T12:44:13.789Z,95732.63
2018-10-05T12:46:43.003Z,95724.81
2018-10-05T12:49:12.075Z,95718.88
2018-10-05T12:51:41.122Z,95718.16
2018-10-05T12:54:10.210Z,95714.66
2018-10-05T12:56:39.258Z,95708.63
2018-10-05T12:59:08.317Z,95708.30
2018-10-05T13:01:37.380Z,95703.51
2018-10-05T13:04:06.442Z,95703.50
2018-10-05T13:06:35.490Z,95700.91
2018-10-05T13:09:04.540Z,95704.65
2018-10-05T13:11:33.607Z,95694.03
2018-10-05T13:16:40.374Z,95689.48
2018-10-05T13:19:09.437Z,95681.75
2018-10-05T13:21:38.524Z,95684.83
2018-10-05T13:24:07.571Z,95673.98
2018-10-05T13:31:48.184Z,95668.75
2018-10-05T13:34:17.285Z,95660.13
2018-10-05T13:36:48.277Z,95666.63
2018-10-05T13:39:17.324Z,95670.96
2018-10-05T13:41:46.428Z,95661.92
2018-10-05T13:44:16.402Z,95658.16
2018-10-05T13:46:45.511Z,95655.80
2018-10-05T13:49:14.568Z,95651.52
2018-10-05T13:54:24.049Z,95652.62
2018-10-05T13:59:28.460Z,95640.18
2018-10-05T14:01:57.532Z,95643.08
2018-10-05T14:04:30.793Z,95647.42
2018-10-05T14:07:01.866Z,95648.09
2018-10-05T14:09:30.951Z,95634.44
2018-10-05T14:12:02.004Z,95636.17
2018-10-05T14:14:31.079Z,95636.38
2018-10-05T14:17:00.137Z,95630.64
2018-10-05T14:19:30.204Z,95625.95
2018-10-05T14:21:59.260Z,95627.78
2018-10-05T14:24:28.344Z,95625.03
2018-10-05T14:26:58.384Z,95629.52
2018-10-05T14:29:27.452Z,95624.69
2018-10-05T14:31:56.592Z,95618.78
2018-10-05T14:34:25.663Z,95621.94
2018-10-05T14:39:30.519Z,95627.72
2018-10-05T14:44:40.231Z,95621.11
2018-10-05T14:47:09.288Z,95624.95
2018-10-05T14:49:39.568Z,95613.81
2018-10-05T14:52:08.581Z,95614.19
2018-10-05T14:54:37.713Z,95608.58
2018-10-05T14:57:06.814Z,95607.84
2018-10-05T14:59:35.834Z,95611.56
2018-10-05T15:02:04.910Z,95605.73
2018-10-05T15:07:09.832Z,95604.84
2018-10-05T15:09:38.803Z,95602.64
2018-10-05T15:17:19.351Z,95596.98
2018-10-05T15:19:48.406Z,95598.00
2018-10-05T15:24:53.320Z,95592.45
2018-10-05T15:27:23.357Z,95589.16
2018-10-05T15:29:52.425Z,95596.00
2018-10-05T15:32:21.486Z,95586.13
2018-10-05T15:34:52.521Z,95585.77
2018-10-05T15:37:21.584Z,95585.31
2018-10-05T15:39:50.653Z,95593.27
2018-10-05T15:42:19.701Z,95590.77
2018-10-05T15:45:01.042Z,95582.84
2018-10-05T15:47:42.969Z,95578.30
2018-10-05T15:50:22.517Z,95576.08
2018-10-05T15:55:42.198Z,95573.34
2018-10-05T15:58:19.383Z,95565.59
2018-10-05T16:00:57.793Z,95570.16
2018-10-05T16:03:29.358Z,95567.31
2018-10-05T16:06:04.484Z,95568.59
2018-10-05T16:08:40.860Z,95567.59
2018-10-05T16:11:19.733Z,95566.77
2018-10-05T16:14:02.038Z,95568.94
2018-10-05T16:16:40.408Z,95571.97
2018-10-05T16:19:17.876Z,95575.89
2018-10-05T16:21:55.961Z,95574.04
2018-10-05T16:24:35.627Z,95573.25
2018-10-05T16:27:10.954Z,95574.52
2018-10-05T16:37:38.055Z,95561.70
2018-10-05T16:40:12.922Z,95566.17
2018-10-05T16:42:49.798Z,95570.20
2018-10-05T16:45:26.930Z,95567.52
2018-10-05T16:47:57.282Z,95562.99
2018-10-05T16:50:26.345Z,95564.99
2018-10-05T16:52:55.600Z,95566.91
2018-10-05T16:55:24.621Z,95565.78
2018-10-05T16:57:53.681Z,95566.83
2018-10-05T17:00:22.763Z,95567.08
2018-10-05T17:02:51.802Z,95567.92
2018-10-05T17:05:21.806Z,95569.78
2018-10-05T17:07:50.850Z,95569.98
2018-10-05T17:10:19.916Z,95572.42
2018-10-05T17:12:48.950Z,95574.33
2018-10-05T17:15:18.011Z,95570.77
2018-10-05T17:17:47.099Z,95572.66
2018-10-05T17:20:20.819Z,95573.54
2018-10-05T17:22:49.890Z,95569.31
2018-10-05T17:25:18.940Z,95562.70
2018-10-05T17:27:48.075Z,95556.15
2018-10-05T17:30:17.117Z,95550.19
2018-10-05T17:32:47.128Z,95549.25
2018-10-05T17:35:16.176Z,95548.17
2018-10-05T17:37:45.262Z,95541.34
2018-10-05T17:40:14.272Z,95543.56
2018-10-05T17:42:43.318Z,95545.99
2018-10-05T17:45:12.417Z,95545.59
2018-10-05T17:47:41.526Z,95543.47
2018-10-05T17:50:10.574Z,95548.26
2018-10-05T17:52:39.623Z,95547.45
2018-10-05T17:55:08.700Z,95540.20
2018-10-05T17:57:37.735Z,95543.84
2018-10-05T18:00:06.784Z,95548.11
2018-10-05T18:02:35.825Z,95545.75
2018-10-05T18:05:10.650Z,95553.19
2018-10-05T18:07:39.698Z,95549.64
2018-10-05T18:10:10.729Z,95554.75
2018-10-05T18:12:43.299Z,95555.81
2018-10-05T18:15:12.332Z,95552.31
2018-10-05T18:20:17.189Z,95561.48
2018-10-05T18:22:46.295Z,95564.30
2018-10-05T18:25:15.356Z,95562.44
2018-10-05T18:27:44.409Z,95567.95
2018-10-05T18:30:13.481Z,95566.73
2018-10-05T18:37:54.081Z,95551.11
2018-10-05T18:40:23.334Z,95550.78
2018-10-05T18:42:52.426Z,95546.28
2018-10-05T18:45:21.528Z,95540.32
2018-10-05T18:47:50.702Z,95544.05
2018-10-05T18:50:19.751Z,95546.95
2018-10-05T18:55:24.548Z,95541.90
2018-10-05T18:57:53.620Z,95541.87
2018-10-05T19:00:22.749Z,95540.11
2018-10-05T19:02:56.576Z,95537.47
2018-10-05T19:05:26.700Z,95536.50
2018-10-05T19:07:57.657Z,95533.50
2018-10-05T19:10:26.744Z,95534.02
2018-10-05T19:12:55.817Z,95533.08
2018-10-05T19:15:26.335Z,95530.72
2018-10-05T19:17:56.492Z,95538.53
2018-10-05T19:20:26.173Z,95546.78
2018-10-05T19:22:58.819Z,95543.97
2018-10-05T19:25:28.020Z,95548.69
2018-10-05T19:27:57.083Z,95549.14
2018-10-05T19:30:26.133Z,95546.88
2018-10-05T19:35:30.897Z,95546.34
2018-10-05T19:38:00.410Z,95539.95
2018-10-05T19:40:29.517Z,95549.87
2018-10-05T19:42:58.753Z,95547.90
2018-10-05T19:45:27.861Z,95548.34
2018-10-05T19:47:58.130Z,95551.52
2018-10-05T19:50:27.246Z,95554.60
2018-10-05T19:52:56.398Z,95555.47
2018-10-05T19:55:26.469Z,95553.36
2018-10-05T19:57:55.553Z,95550.56
2018-10-05T20:00:24.661Z,95548.98
2018-10-05T20:02:53.829Z,95545.94
2018-10-05T20:05:26.302Z,95547.30
2018-10-05T20:08:02.953Z,95548.75
2018-10-05T20:10:33.860Z,95542.15
2018-10-05T20:13:04.314Z,95538.39
2018-10-05T20:18:10.375Z,95537.48
2018-10-05T20:20:41.102Z,95532.45
2018-10-05T20:23:14.287Z,95534.03
2018-10-05T20:25:43.512Z,95535.43
2018-10-05T20:30:48.847Z,95537.56
2018-10-05T20:33:18.844Z,95538.03
2018-10-05T20:35:48.882Z,95536.86
2018-10-05T20:40:57.100Z,95535.45
2018-10-05T20:43:27.479Z,95535.72
2018-10-05T20:45:56.993Z,95537.95
2018-10-05T20:48:27.017Z,95540.14
2018-10-05T20:51:01.877Z,95533.09
2018-10-05T20:53:31.233Z,95534.70
2018-10-05T20:56:01.275Z,95534.56
2018-10-05T20:58:30.309Z,95525.49
2018-10-05T21:01:00.887Z,95518.69
2018-10-05T21:03:30.919Z,95518.24
2018-10-05T21:06:00.209Z,95522.77
2018-10-05T21:08:31.066Z,95518.78
2018-10-05T21:16:13.929Z,95519.23
2018-10-05T21:18:43.632Z,95519.59
2018-10-05T21:21:12.656Z,95523.70
2018-10-05T21:23:42.363Z,95523.20
2018-10-05T21:26:11.503Z,95522.92
2018-10-05T21:28:44.333Z,95525.72
2018-10-05T21:31:15.090Z,95522.48
2018-10-05T21:33:44.145Z,95523.38
2018-10-05T21:36:13.740Z,95521.86
2018-10-05T21:41:28.632Z,95517.11
2018-10-05T21:43:59.635Z,95522.33
2018-10-05T21:46:29.604Z,95525.02
2018-10-05T21:49:04.265Z,95529.91
2018-10-05T21:51:33.497Z,95525.48
2018-10-05T21:54:04.115Z,95523.84
2018-10-05T21:56:36.496Z,95521.85
2018-10-05T21:59:06.993Z,95522.91
2018-10-05T22:01:37.607Z,95521.22
2018-10-05T22:04:08.455Z,95521.69
2018-10-05T22:06:37.615Z,95521.24
2018-10-05T22:09:12.401Z,95516.33
2018-10-05T22:14:17.657Z,95516.53
2018-10-05T22:16:47.983Z,95510.91
2018-10-05T22:19:17.029Z,95503.25
2018-10-05T22:21:46.102Z,95498.55
2018-10-05T22:24:24.798Z,95498.33
2018-10-05T22:29:33.779Z,95493.92
2018-10-05T22:32:03.635Z,95494.01
2018-10-05T22:34:34.898Z,95489.75
2018-10-05T22:37:05.173Z,95487.59
2018-10-05T22:39:35.360Z,95479.48
2018-10-05T22:42:06.715Z,95480.14
2018-10-05T22:44:36.941Z,95480.31
2018-10-05T22:47:07.532Z,95474.16
2018-10-05T22:49:37.680Z,95474.77
2018-10-05T22:52:09.131Z,95470.05
2018-10-05T22:54:40.915Z,95467.52
2018-10-05T22:57:11.117Z,95472.02
2018-10-05T22:59:42.198Z,95477.89
2018-10-05T23:02:11.237Z,95482.91
2018-10-05T23:10:04.620Z,95490.56
2018-10-05T23:12:34.161Z,95489.47
2018-10-05T23:15:03.221Z,95485.64
2018-10-05T23:17:32.248Z,95486.83
2018-10-05T23:20:01.293Z,95479.94
2018-10-05T23:22:30.342Z,95485.73
2018-10-05T23:27:35.095Z,95492.08
2018-10-05T23:30:04.171Z,95497.34
2018-10-05T23:32:35.190Z,95496.91
2018-10-05T23:35:04.268Z,95503.09
2018-10-05T23:37:42.127Z,95501.77
2018-10-05T23:40:15.139Z,95501.00
2018-10-05T23:42:45.690Z,95489.82
2018-10-05T23:45:14.962Z,95489.63
2018-10-05T23:47:45.945Z,95490.56
2018-10-05T23:50:23.904Z,95493.45
2018-10-05T23:52:57.753Z,95494.85
2018-10-05T23:55:35.948Z,95493.20
2018-10-05T23:58:11.754Z,95483.70
